sensor_id;sensor_type;location;lat;lon;timestamp;P1;durP1;ratioP1;P2;durP2;ratioP2
1128;SDS011;553;51.038;7.216;2023-01-30T00:01:25;45.22;;;19.33;;
1128;SDS011;553;51.038;7.216;2023-01-30T00:03:54;43.75;;;20.38;;
1128;SDS011;553;51.038;7.216;2023-01-30T00:06:21;44.92;;;19.95;;
1128;SDS011;553;51.038;7.216;2023-01-30T00:08:48;41.63;;;18.92;;
1128;SDS011;553;51.038;7.216;2023-01-30T00:11:15;42.50;;;19.35;;
1128;SDS011;553;51.038;7.216;2023-01-30T00:13:45;40.53;;;18.85;;
1128;SDS011;553;51.038;7.216;2023-01-30T00:16:13;36.50;;;18.60;;
1128;SDS011;553;51.038;7.216;2023-01-30T00:18:40;40.00;;;18.35;;
1128;SDS011;553;51.038;7.216;2023-01-30T00:21:09;46.08;;;20.92;;
1128;SDS011;553;51.038;7.216;2023-01-30T00:23:37;43.45;;;19.42;;
1128;SDS011;553;51.038;7.216;2023-01-30T00:26:04;44.65;;;20.30;;
1128;SDS011;553;51.038;7.216;2023-01-30T00:28:32;39.80;;;20.73;;
1128;SDS011;553;51.038;7.216;2023-01-30T00:30:59;38.67;;;17.95;;
1128;SDS011;553;51.038;7.216;2023-01-30T00:33:26;42.90;;;19.80;;
1128;SDS011;553;51.038;7.216;2023-01-30T00:35:54;43.92;;;21.02;;
1128;SDS011;553;51.038;7.216;2023-01-30T00:38:21;38.85;;;19.80;;
1128;SDS011;553;51.038;7.216;2023-01-30T00:40:49;45.67;;;21.02;;
1128;SDS011;553;51.038;7.216;2023-01-30T00:43:17;42.00;;;19.25;;
1128;SDS011;553;51.038;7.216;2023-01-30T00:46:04;38.47;;;18.90;;
1128;SDS011;553;51.038;7.216;2023-01-30T00:49:00;37.15;;;17.05;;
1128;SDS011;553;51.038;7.216;2023-01-30T00:51:27;43.25;;;20.05;;
1128;SDS011;553;51.038;7.216;2023-01-30T00:53:54;37.95;;;19.33;;
1128;SDS011;553;51.038;7.216;2023-01-30T00:56:21;39.50;;;18.73;;
1128;SDS011;553;51.038;7.216;2023-01-30T00:58:47;40.53;;;19.05;;
1128;SDS011;553;51.038;7.216;2023-01-30T01:01:14;45.87;;;19.80;;
1128;SDS011;553;51.038;7.216;2023-01-30T01:03:41;43.83;;;20.40;;
1128;SDS011;553;51.038;7.216;2023-01-30T01:06:08;47.30;;;21.03;;
1128;SDS011;553;51.038;7.216;2023-01-30T01:08:34;42.22;;;19.95;;
1128;SDS011;553;51.038;7.216;2023-01-30T01:11:01;48.05;;;21.52;;
1128;SDS011;553;51.038;7.216;2023-01-30T01:13:28;40.70;;;19.27;;
1128;SDS011;553;51.038;7.216;2023-01-30T01:15:55;42.42;;;20.38;;
1128;SDS011;553;51.038;7.216;2023-01-30T01:18:22;53.53;;;22.70;;
1128;SDS011;553;51.038;7.216;2023-01-30T01:20:49;37.50;;;18.73;;
1128;SDS011;553;51.038;7.216;2023-01-30T01:23:15;43.00;;;20.13;;
1128;SDS011;553;51.038;7.216;2023-01-30T01:25:42;41.25;;;20.88;;
1128;SDS011;553;51.038;7.216;2023-01-30T01:28:09;43.97;;;22.38;;
1128;SDS011;553;51.038;7.216;2023-01-30T01:30:36;46.40;;;19.83;;
1128;SDS011;553;51.038;7.216;2023-01-30T01:33:03;44.17;;;19.25;;
1128;SDS011;553;51.038;7.216;2023-01-30T01:35:30;51.90;;;24.17;;
1128;SDS011;553;51.038;7.216;2023-01-30T01:37:56;52.00;;;22.50;;
1128;SDS011;553;51.038;7.216;2023-01-30T01:40:23;49.63;;;21.98;;
1128;SDS011;553;51.038;7.216;2023-01-30T01:43:15;48.38;;;22.52;;
1128;SDS011;553;51.038;7.216;2023-01-30T01:45:44;48.80;;;21.95;;
1128;SDS011;553;51.038;7.216;2023-01-30T01:48:37;51.47;;;22.57;;
1128;SDS011;553;51.038;7.216;2023-01-30T01:51:15;54.43;;;24.10;;
1128;SDS011;553;51.038;7.216;2023-01-30T01:53:51;57.43;;;24.07;;
1128;SDS011;553;51.038;7.216;2023-01-30T01:56:22;52.30;;;22.95;;
1128;SDS011;553;51.038;7.216;2023-01-30T01:58:54;55.47;;;23.13;;
1128;SDS011;553;51.038;7.216;2023-01-30T02:01:26;48.80;;;23.00;;
1128;SDS011;553;51.038;7.216;2023-01-30T02:03:55;51.00;;;23.50;;
1128;SDS011;553;51.038;7.216;2023-01-30T02:06:27;54.23;;;22.77;;
1128;SDS011;553;51.038;7.216;2023-01-30T02:08:57;58.70;;;26.00;;
1128;SDS011;553;51.038;7.216;2023-01-30T02:11:38;56.67;;;24.37;;
1128;SDS011;553;51.038;7.216;2023-01-30T02:14:17;51.93;;;21.90;;
1128;SDS011;553;51.038;7.216;2023-01-30T02:16:46;53.33;;;23.70;;
1128;SDS011;553;51.038;7.216;2023-01-30T02:24:39;60.73;;;24.37;;
1128;SDS011;553;51.038;7.216;2023-01-30T02:27:23;52.00;;;23.17;;
1128;SDS011;553;51.038;7.216;2023-01-30T02:32:49;47.47;;;23.07;;
1128;SDS011;553;51.038;7.216;2023-01-30T02:35:55;58.17;;;24.90;;
1128;SDS011;553;51.038;7.216;2023-01-30T02:38:40;48.40;;;21.07;;
1128;SDS011;553;51.038;7.216;2023-01-30T02:41:24;48.00;;;21.77;;
1128;SDS011;553;51.038;7.216;2023-01-30T02:46:57;46.87;;;23.17;;
1128;SDS011;553;51.038;7.216;2023-01-30T02:49:40;45.67;;;22.27;;
1128;SDS011;553;51.038;7.216;2023-01-30T02:52:11;55.90;;;24.00;;
1128;SDS011;553;51.038;7.216;2023-01-30T02:54:43;50.07;;;23.40;;
1128;SDS011;553;51.038;7.216;2023-01-30T02:57:17;49.60;;;20.90;;
1128;SDS011;553;51.038;7.216;2023-01-30T02:59:51;43.93;;;21.40;;
1128;SDS011;553;51.038;7.216;2023-01-30T03:10:41;46.93;;;21.80;;
1128;SDS011;553;51.038;7.216;2023-01-30T03:16:20;47.40;;;23.10;;
1128;SDS011;553;51.038;7.216;2023-01-30T03:18:53;42.63;;;18.67;;
1128;SDS011;553;51.038;7.216;2023-01-30T03:21:20;45.47;;;21.70;;
1128;SDS011;553;51.038;7.216;2023-01-30T03:23:49;44.70;;;21.30;;
1128;SDS011;553;51.038;7.216;2023-01-30T03:26:17;45.33;;;21.60;;
1128;SDS011;553;51.038;7.216;2023-01-30T03:28:48;43.97;;;22.47;;
1128;SDS011;553;51.038;7.216;2023-01-30T03:31:16;48.77;;;21.90;;
1128;SDS011;553;51.038;7.216;2023-01-30T03:33:44;50.63;;;22.40;;
1128;SDS011;553;51.038;7.216;2023-01-30T03:36:11;46.80;;;21.20;;
1128;SDS011;553;51.038;7.216;2023-01-30T03:38:38;52.80;;;22.67;;
1128;SDS011;553;51.038;7.216;2023-01-30T03:41:05;52.93;;;22.17;;
1128;SDS011;553;51.038;7.216;2023-01-30T03:43:33;39.87;;;19.07;;
1128;SDS011;553;51.038;7.216;2023-01-30T03:46:01;54.63;;;24.43;;
1128;SDS011;553;51.038;7.216;2023-01-30T03:48:28;49.70;;;22.33;;
1128;SDS011;553;51.038;7.216;2023-01-30T03:50:55;47.90;;;22.07;;
1128;SDS011;553;51.038;7.216;2023-01-30T03:53:22;49.00;;;22.50;;
1128;SDS011;553;51.038;7.216;2023-01-30T03:55:49;51.77;;;23.50;;
1128;SDS011;553;51.038;7.216;2023-01-30T03:58:21;53.37;;;22.57;;
1128;SDS011;553;51.038;7.216;2023-01-30T04:00:49;52.37;;;25.87;;
1128;SDS011;553;51.038;7.216;2023-01-30T04:03:15;54.97;;;23.03;;
1128;SDS011;553;51.038;7.216;2023-01-30T04:05:42;55.40;;;25.00;;
1128;SDS011;553;51.038;7.216;2023-01-30T04:08:09;49.37;;;23.07;;
1128;SDS011;553;51.038;7.216;2023-01-30T04:13:05;50.43;;;25.23;;
1128;SDS011;553;51.038;7.216;2023-01-30T04:15:32;44.33;;;21.77;;
1128;SDS011;553;51.038;7.216;2023-01-30T04:18:37;45.13;;;20.43;;
1128;SDS011;553;51.038;7.216;2023-01-30T04:21:11;45.93;;;23.80;;
1128;SDS011;553;51.038;7.216;2023-01-30T04:23:39;46.43;;;23.80;;
1128;SDS011;553;51.038;7.216;2023-01-30T04:26:06;56.97;;;24.73;;
1128;SDS011;553;51.038;7.216;2023-01-30T04:28:36;50.10;;;23.63;;
1128;SDS011;553;51.038;7.216;2023-01-30T04:31:03;47.53;;;24.20;;
1128;SDS011;553;51.038;7.216;2023-01-30T04:33:42;48.87;;;22.80;;
1128;SDS011;553;51.038;7.216;2023-01-30T04:36:10;46.10;;;25.00;;
1128;SDS011;553;51.038;7.216;2023-01-30T04:38:38;51.40;;;24.23;;
1128;SDS011;553;51.038;7.216;2023-01-30T04:41:05;48.40;;;24.00;;
1128;SDS011;553;51.038;7.216;2023-01-30T04:43:37;51.83;;;24.90;;
1128;SDS011;553;51.038;7.216;2023-01-30T04:46:22;48.40;;;22.30;;
1128;SDS011;553;51.038;7.216;2023-01-30T04:48:49;50.37;;;25.60;;
1128;SDS011;553;51.038;7.216;2023-01-30T04:51:16;37.93;;;19.63;;
1128;SDS011;553;51.038;7.216;2023-01-30T04:53:43;55.60;;;25.70;;
1128;SDS011;553;51.038;7.216;2023-01-30T04:56:10;50.67;;;23.93;;
1128;SDS011;553;51.038;7.216;2023-01-30T04:58:36;47.00;;;23.47;;
1128;SDS011;553;51.038;7.216;2023-01-30T05:03:50;45.10;;;22.77;;
1128;SDS011;553;51.038;7.216;2023-01-30T05:06:18;51.77;;;23.30;;
1128;SDS011;553;51.038;7.216;2023-01-30T05:08:47;50.80;;;23.60;;
1128;SDS011;553;51.038;7.216;2023-01-30T05:11:18;42.50;;;21.87;;
1128;SDS011;553;51.038;7.216;2023-01-30T05:13:45;47.90;;;24.63;;
1128;SDS011;553;51.038;7.216;2023-01-30T05:16:13;58.20;;;24.90;;
1128;SDS011;553;51.038;7.216;2023-01-30T05:18:40;52.73;;;24.17;;
1128;SDS011;553;51.038;7.216;2023-01-30T05:21:09;52.33;;;24.20;;
1128;SDS011;553;51.038;7.216;2023-01-30T05:23:38;44.87;;;22.00;;
1128;SDS011;553;51.038;7.216;2023-01-30T05:26:06;45.17;;;21.60;;
1128;SDS011;553;51.038;7.216;2023-01-30T05:28:33;47.73;;;22.80;;
1128;SDS011;553;51.038;7.216;2023-01-30T05:31:11;50.60;;;25.60;;
1128;SDS011;553;51.038;7.216;2023-01-30T05:33:39;43.27;;;22.40;;
1128;SDS011;553;51.038;7.216;2023-01-30T05:36:06;51.80;;;23.93;;
1128;SDS011;553;51.038;7.216;2023-01-30T05:38:38;46.20;;;23.30;;
1128;SDS011;553;51.038;7.216;2023-01-30T05:41:06;52.50;;;24.27;;
1128;SDS011;553;51.038;7.216;2023-01-30T05:43:33;46.87;;;23.07;;
1128;SDS011;553;51.038;7.216;2023-01-30T05:46:01;44.40;;;22.33;;
1128;SDS011;553;51.038;7.216;2023-01-30T05:48:31;43.93;;;23.13;;
1128;SDS011;553;51.038;7.216;2023-01-30T05:50:58;41.50;;;21.33;;
1128;SDS011;553;51.038;7.216;2023-01-30T05:53:27;45.53;;;22.00;;
1128;SDS011;553;51.038;7.216;2023-01-30T05:56:00;43.23;;;22.43;;
1128;SDS011;553;51.038;7.216;2023-01-30T05:58:29;41.27;;;22.43;;
1128;SDS011;553;51.038;7.216;2023-01-30T06:01:00;46.33;;;21.50;;
1128;SDS011;553;51.038;7.216;2023-01-30T06:03:27;44.80;;;21.43;;
1128;SDS011;553;51.038;7.216;2023-01-30T06:05:54;51.60;;;23.70;;
1128;SDS011;553;51.038;7.216;2023-01-30T06:08:21;44.13;;;22.60;;
1128;SDS011;553;51.038;7.216;2023-01-30T06:10:48;47.37;;;22.40;;
1128;SDS011;553;51.038;7.216;2023-01-30T06:13:15;49.60;;;24.83;;
1128;SDS011;553;51.038;7.216;2023-01-30T06:15:42;44.03;;;22.23;;
1128;SDS011;553;51.038;7.216;2023-01-30T06:18:08;51.50;;;22.10;;
1128;SDS011;553;51.038;7.216;2023-01-30T06:20:35;48.77;;;24.23;;
1128;SDS011;553;51.038;7.216;2023-01-30T06:23:02;47.87;;;22.93;;
1128;SDS011;553;51.038;7.216;2023-01-30T06:25:29;48.40;;;25.77;;
1128;SDS011;553;51.038;7.216;2023-01-30T06:27:55;52.70;;;26.97;;
1128;SDS011;553;51.038;7.216;2023-01-30T06:30:22;45.47;;;21.80;;
1128;SDS011;553;51.038;7.216;2023-01-30T06:32:49;46.83;;;26.27;;
1128;SDS011;553;51.038;7.216;2023-01-30T06:35:16;51.50;;;25.90;;
1128;SDS011;553;51.038;7.216;2023-01-30T06:37:44;50.87;;;26.03;;
1128;SDS011;553;51.038;7.216;2023-01-30T06:40:11;57.23;;;26.77;;
1128;SDS011;553;51.038;7.216;2023-01-30T06:42:42;55.97;;;27.30;;
1128;SDS011;553;51.038;7.216;2023-01-30T06:45:10;56.10;;;29.70;;
1128;SDS011;553;51.038;7.216;2023-01-30T06:47:51;63.77;;;32.70;;
1128;SDS011;553;51.038;7.216;2023-01-30T06:50:20;55.47;;;27.87;;
1128;SDS011;553;51.038;7.216;2023-01-30T06:52:49;45.60;;;25.90;;
1128;SDS011;553;51.038;7.216;2023-01-30T06:55:17;59.97;;;27.50;;
1128;SDS011;553;51.038;7.216;2023-01-30T06:57:46;59.60;;;29.83;;
1128;SDS011;553;51.038;7.216;2023-01-30T07:00:14;62.03;;;31.83;;
1128;SDS011;553;51.038;7.216;2023-01-30T07:02:43;59.60;;;30.00;;
1128;SDS011;553;51.038;7.216;2023-01-30T07:05:11;62.57;;;31.17;;
1128;SDS011;553;51.038;7.216;2023-01-30T07:07:38;56.80;;;28.30;;
1128;SDS011;553;51.038;7.216;2023-01-30T07:10:05;52.83;;;27.10;;
1128;SDS011;553;51.038;7.216;2023-01-30T07:12:34;66.07;;;31.00;;
1128;SDS011;553;51.038;7.216;2023-01-30T07:15:02;56.97;;;29.60;;
1128;SDS011;553;51.038;7.216;2023-01-30T07:17:30;58.73;;;29.57;;
1128;SDS011;553;51.038;7.216;2023-01-30T07:19:58;53.40;;;29.00;;
1128;SDS011;553;51.038;7.216;2023-01-30T07:22:25;45.60;;;24.13;;
1128;SDS011;553;51.038;7.216;2023-01-30T07:24:51;46.50;;;22.80;;
1128;SDS011;553;51.038;7.216;2023-01-30T07:27:19;52.97;;;26.17;;
1128;SDS011;553;51.038;7.216;2023-01-30T07:29:46;44.37;;;23.53;;
1128;SDS011;553;51.038;7.216;2023-01-30T07:32:13;40.73;;;20.97;;
1128;SDS011;553;51.038;7.216;2023-01-30T07:34:42;46.67;;;23.13;;
1128;SDS011;553;51.038;7.216;2023-01-30T07:37:08;44.07;;;22.37;;
1128;SDS011;553;51.038;7.216;2023-01-30T07:39:35;42.50;;;23.63;;
1128;SDS011;553;51.038;7.216;2023-01-30T07:42:02;48.07;;;24.80;;
1128;SDS011;553;51.038;7.216;2023-01-30T07:44:29;41.60;;;23.47;;
1128;SDS011;553;51.038;7.216;2023-01-30T07:46:56;41.80;;;20.60;;
1128;SDS011;553;51.038;7.216;2023-01-30T07:49:23;42.07;;;20.93;;
1128;SDS011;553;51.038;7.216;2023-01-30T07:51:49;42.37;;;18.63;;
1128;SDS011;553;51.038;7.216;2023-01-30T07:54:17;37.63;;;20.40;;
1128;SDS011;553;51.038;7.216;2023-01-30T07:56:43;45.00;;;21.83;;
1128;SDS011;553;51.038;7.216;2023-01-30T07:59:10;41.10;;;20.70;;
1128;SDS011;553;51.038;7.216;2023-01-30T08:01:37;39.50;;;20.07;;
1128;SDS011;553;51.038;7.216;2023-01-30T08:04:04;43.50;;;20.37;;
1128;SDS011;553;51.038;7.216;2023-01-30T08:06:31;39.23;;;19.40;;
1128;SDS011;553;51.038;7.216;2023-01-30T08:09:02;42.53;;;19.73;;
1128;SDS011;553;51.038;7.216;2023-01-30T08:11:29;42.57;;;20.37;;
1128;SDS011;553;51.038;7.216;2023-01-30T08:13:56;43.20;;;22.37;;
1128;SDS011;553;51.038;7.216;2023-01-30T08:16:23;42.33;;;21.13;;
1128;SDS011;553;51.038;7.216;2023-01-30T08:18:49;46.93;;;21.03;;
1128;SDS011;553;51.038;7.216;2023-01-30T08:21:16;50.17;;;22.57;;
1128;SDS011;553;51.038;7.216;2023-01-30T08:23:43;42.63;;;22.13;;
1128;SDS011;553;51.038;7.216;2023-01-30T08:26:10;44.17;;;21.97;;
1128;SDS011;553;51.038;7.216;2023-01-30T08:28:36;40.17;;;21.67;;
1128;SDS011;553;51.038;7.216;2023-01-30T08:31:07;45.67;;;21.23;;
1128;SDS011;553;51.038;7.216;2023-01-30T08:33:36;50.80;;;23.50;;
1128;SDS011;553;51.038;7.216;2023-01-30T08:36:02;42.73;;;21.00;;
1128;SDS011;553;51.038;7.216;2023-01-30T08:38:29;44.87;;;22.10;;
1128;SDS011;553;51.038;7.216;2023-01-30T08:40:56;45.87;;;21.67;;
1128;SDS011;553;51.038;7.216;2023-01-30T08:43:24;39.43;;;22.37;;
1128;SDS011;553;51.038;7.216;2023-01-30T08:45:54;49.00;;;22.17;;
1128;SDS011;553;51.038;7.216;2023-01-30T08:48:21;49.80;;;23.60;;
1128;SDS011;553;51.038;7.216;2023-01-30T08:50:52;43.37;;;22.67;;
1128;SDS011;553;51.038;7.216;2023-01-30T08:53:19;47.07;;;25.07;;
1128;SDS011;553;51.038;7.216;2023-01-30T08:55:50;42.17;;;21.67;;
1128;SDS011;553;51.038;7.216;2023-01-30T08:58:18;44.23;;;24.13;;
1128;SDS011;553;51.038;7.216;2023-01-30T09:00:46;45.70;;;21.80;;
1128;SDS011;553;51.038;7.216;2023-01-30T09:03:15;41.10;;;23.40;;
1128;SDS011;553;51.038;7.216;2023-01-30T09:05:43;48.40;;;22.73;;
1128;SDS011;553;51.038;7.216;2023-01-30T09:08:09;41.67;;;22.93;;
1128;SDS011;553;51.038;7.216;2023-01-30T09:10:36;48.83;;;23.00;;
1128;SDS011;553;51.038;7.216;2023-01-30T09:13:03;46.53;;;23.80;;
1128;SDS011;553;51.038;7.216;2023-01-30T09:15:31;36.97;;;20.40;;
1128;SDS011;553;51.038;7.216;2023-01-30T09:17:58;40.30;;;21.60;;
1128;SDS011;553;51.038;7.216;2023-01-30T09:20:24;39.20;;;21.60;;
1128;SDS011;553;51.038;7.216;2023-01-30T09:22:51;39.73;;;20.50;;
1128;SDS011;553;51.038;7.216;2023-01-30T09:25:18;38.80;;;18.00;;
1128;SDS011;553;51.038;7.216;2023-01-30T09:27:48;41.23;;;19.57;;
1128;SDS011;553;51.038;7.216;2023-01-30T09:30:15;29.20;;;16.10;;
1128;SDS011;553;51.038;7.216;2023-01-30T09:32:43;35.73;;;16.77;;
1128;SDS011;553;51.038;7.216;2023-01-30T09:35:10;29.40;;;16.73;;
1128;SDS011;553;51.038;7.216;2023-01-30T09:37:37;29.80;;;15.60;;
1128;SDS011;553;51.038;7.216;2023-01-30T09:40:13;28.53;;;15.10;;
1128;SDS011;553;51.038;7.216;2023-01-30T09:51:04;21.77;;;10.80;;
1128;SDS011;553;51.038;7.216;2023-01-30T09:56:55;22.83;;;11.33;;
1128;SDS011;553;51.038;7.216;2023-01-30T10:02:43;18.70;;;8.50;;
1128;SDS011;553;51.038;7.216;2023-01-30T10:05:20;16.00;;;6.73;;
1128;SDS011;553;51.038;7.216;2023-01-30T10:13:06;12.37;;;6.37;;
1128;SDS011;553;51.038;7.216;2023-01-30T10:18:40;17.87;;;5.20;;
1128;SDS011;553;51.038;7.216;2023-01-30T10:26:35;15.33;;;5.63;;
1128;SDS011;553;51.038;7.216;2023-01-30T10:31:54;14.53;;;3.40;;
1128;SDS011;553;51.038;7.216;2023-01-30T10:34:31;13.43;;;4.07;;
1128;SDS011;553;51.038;7.216;2023-01-30T10:37:05;19.67;;;3.80;;
1128;SDS011;553;51.038;7.216;2023-01-30T10:45:02;14.90;;;4.37;;
1128;SDS011;553;51.038;7.216;2023-01-30T10:47:41;12.73;;;3.60;;
1128;SDS011;553;51.038;7.216;2023-01-30T10:50:16;9.57;;;3.20;;
1128;SDS011;553;51.038;7.216;2023-01-30T10:55:38;12.27;;;3.23;;
1128;SDS011;553;51.038;7.216;2023-01-30T11:00:50;17.43;;;4.17;;
1128;SDS011;553;51.038;7.216;2023-01-30T11:03:25;10.93;;;3.37;;
1128;SDS011;553;51.038;7.216;2023-01-30T11:06:19;9.27;;;3.50;;
1128;SDS011;553;51.038;7.216;2023-01-30T11:08:49;15.47;;;4.70;;
1128;SDS011;553;51.038;7.216;2023-01-30T11:11:22;17.43;;;3.43;;
1128;SDS011;553;51.038;7.216;2023-01-30T11:14:07;11.37;;;2.90;;
1128;SDS011;553;51.038;7.216;2023-01-30T11:16:54;16.83;;;4.77;;
1128;SDS011;553;51.038;7.216;2023-01-30T11:19:23;10.10;;;3.40;;
1128;SDS011;553;51.038;7.216;2023-01-30T11:22:01;11.90;;;4.10;;
1128;SDS011;553;51.038;7.216;2023-01-30T11:24:31;9.60;;;3.70;;
1128;SDS011;553;51.038;7.216;2023-01-30T11:27:20;16.10;;;3.10;;
1128;SDS011;553;51.038;7.216;2023-01-30T11:29:51;8.00;;;2.80;;
1128;SDS011;553;51.038;7.216;2023-01-30T11:32:42;13.37;;;3.90;;
1128;SDS011;553;51.038;7.216;2023-01-30T11:37:44;12.50;;;2.97;;
1128;SDS011;553;51.038;7.216;2023-01-30T11:42:45;8.70;;;3.00;;
1128;SDS011;553;51.038;7.216;2023-01-30T11:45:14;12.73;;;3.80;;
1128;SDS011;553;51.038;7.216;2023-01-30T11:47:53;15.03;;;3.33;;
1128;SDS011;553;51.038;7.216;2023-01-30T11:50:30;11.17;;;3.33;;
1128;SDS011;553;51.038;7.216;2023-01-30T11:53:13;8.70;;;3.90;;
1128;SDS011;553;51.038;7.216;2023-01-30T11:56:20;12.80;;;3.47;;
1128;SDS011;553;51.038;7.216;2023-01-30T11:58:58;11.30;;;2.97;;
1128;SDS011;553;51.038;7.216;2023-01-30T12:01:28;12.00;;;4.17;;
1128;SDS011;553;51.038;7.216;2023-01-30T12:03:58;10.00;;;2.80;;
1128;SDS011;553;51.038;7.216;2023-01-30T12:06:30;10.30;;;2.50;;
1128;SDS011;553;51.038;7.216;2023-01-30T12:08:59;19.47;;;3.80;;
1128;SDS011;553;51.038;7.216;2023-01-30T12:16:56;11.43;;;2.60;;
1128;SDS011;553;51.038;7.216;2023-01-30T12:22:31;12.10;;;3.57;;
1128;SDS011;553;51.038;7.216;2023-01-30T12:25:18;14.27;;;3.90;;
1128;SDS011;553;51.038;7.216;2023-01-30T12:27:54;11.37;;;2.60;;
1128;SDS011;553;51.038;7.216;2023-01-30T12:30:36;14.13;;;3.23;;
1128;SDS011;553;51.038;7.216;2023-01-30T12:33:09;12.27;;;3.23;;
1128;SDS011;553;51.038;7.216;2023-01-30T12:38:40;12.73;;;3.07;;
1128;SDS011;553;51.038;7.216;2023-01-30T12:41:47;10.30;;;3.07;;
1128;SDS011;553;51.038;7.216;2023-01-30T12:50:22;8.83;;;2.87;;
1128;SDS011;553;51.038;7.216;2023-01-30T12:53:25;16.43;;;2.30;;
1128;SDS011;553;51.038;7.216;2023-01-30T12:58:30;10.40;;;2.90;;
1128;SDS011;553;51.038;7.216;2023-01-30T13:01:02;13.43;;;3.00;;
1128;SDS011;553;51.038;7.216;2023-01-30T13:08:50;13.00;;;3.30;;
1128;SDS011;553;51.038;7.216;2023-01-30T13:11:33;9.50;;;2.10;;
1128;SDS011;553;51.038;7.216;2023-01-30T13:16:38;10.73;;;3.20;;
1128;SDS011;553;51.038;7.216;2023-01-30T13:19:28;7.00;;;1.90;;
1128;SDS011;553;51.038;7.216;2023-01-30T13:22:27;8.53;;;2.17;;
1128;SDS011;553;51.038;7.216;2023-01-30T13:25:03;13.00;;;2.90;;
1128;SDS011;553;51.038;7.216;2023-01-30T13:27:34;10.20;;;2.80;;
1128;SDS011;553;51.038;7.216;2023-01-30T13:30:05;11.63;;;2.20;;
1128;SDS011;553;51.038;7.216;2023-01-30T13:32:39;9.67;;;2.90;;
1128;SDS011;553;51.038;7.216;2023-01-30T13:35:16;15.00;;;2.93;;
1128;SDS011;553;51.038;7.216;2023-01-30T13:37:53;8.93;;;2.70;;
1128;SDS011;553;51.038;7.216;2023-01-30T13:40:21;18.87;;;2.80;;
1128;SDS011;553;51.038;7.216;2023-01-30T13:43:15;19.40;;;2.40;;
1128;SDS011;553;51.038;7.216;2023-01-30T13:45:46;18.00;;;3.07;;
1128;SDS011;553;51.038;7.216;2023-01-30T13:53:45;10.93;;;2.60;;
1128;SDS011;553;51.038;7.216;2023-01-30T13:56:39;12.47;;;3.67;;
1128;SDS011;553;51.038;7.216;2023-01-30T13:59:15;16.10;;;2.20;;
1128;SDS011;553;51.038;7.216;2023-01-30T14:02:16;11.90;;;2.90;;
1128;SDS011;553;51.038;7.216;2023-01-30T14:04:44;12.63;;;3.13;;
1128;SDS011;553;51.038;7.216;2023-01-30T14:09:43;14.63;;;3.47;;
1128;SDS011;553;51.038;7.216;2023-01-30T14:12:24;15.57;;;2.77;;
1128;SDS011;553;51.038;7.216;2023-01-30T14:15:02;17.93;;;3.10;;
1128;SDS011;553;51.038;7.216;2023-01-30T14:17:59;16.10;;;2.93;;
1128;SDS011;553;51.038;7.216;2023-01-30T14:20:47;15.07;;;3.47;;
1128;SDS011;553;51.038;7.216;2023-01-30T14:23:19;15.07;;;3.00;;
1128;SDS011;553;51.038;7.216;2023-01-30T14:25:50;13.50;;;3.17;;
1128;SDS011;553;51.038;7.216;2023-01-30T14:38:41;20.37;;;4.23;;
1128;SDS011;553;51.038;7.216;2023-01-30T14:41:23;17.80;;;3.40;;
1128;SDS011;553;51.038;7.216;2023-01-30T14:43:52;13.70;;;2.73;;
1128;SDS011;553;51.038;7.216;2023-01-30T14:54:00;11.70;;;2.70;;
1128;SDS011;553;51.038;7.216;2023-01-30T15:04:44;14.70;;;3.63;;
1128;SDS011;553;51.038;7.216;2023-01-30T15:09:56;17.40;;;5.27;;
1128;SDS011;553;51.038;7.216;2023-01-30T15:20:34;15.50;;;3.13;;
1128;SDS011;553;51.038;7.216;2023-01-30T15:32:15;24.97;;;6.60;;
1128;SDS011;553;51.038;7.216;2023-01-30T15:34:48;14.60;;;3.20;;
1128;SDS011;553;51.038;7.216;2023-01-30T15:37:30;12.93;;;3.47;;
1128;SDS011;553;51.038;7.216;2023-01-30T15:45:34;11.97;;;3.13;;
1128;SDS011;553;51.038;7.216;2023-01-30T15:48:27;12.27;;;2.53;;
1128;SDS011;553;51.038;7.216;2023-01-30T15:51:07;25.03;;;4.97;;
1128;SDS011;553;51.038;7.216;2023-01-30T15:53:41;12.13;;;3.03;;
1128;SDS011;553;51.038;7.216;2023-01-30T15:56:10;20.40;;;3.87;;
1128;SDS011;553;51.038;7.216;2023-01-30T15:58:43;10.43;;;2.77;;
1128;SDS011;553;51.038;7.216;2023-01-30T16:01:11;20.60;;;4.40;;
1128;SDS011;553;51.038;7.216;2023-01-30T16:03:44;22.63;;;3.97;;
1128;SDS011;553;51.038;7.216;2023-01-30T16:09:20;18.63;;;3.00;;
1128;SDS011;553;51.038;7.216;2023-01-30T16:11:48;21.87;;;4.23;;
1128;SDS011;553;51.038;7.216;2023-01-30T16:14:16;19.70;;;4.97;;
1128;SDS011;553;51.038;7.216;2023-01-30T16:17:01;20.50;;;4.67;;
1128;SDS011;553;51.038;7.216;2023-01-30T16:19:32;13.80;;;4.63;;
1128;SDS011;553;51.038;7.216;2023-01-30T16:22:01;19.20;;;4.37;;
1128;SDS011;553;51.038;7.216;2023-01-30T16:24:36;14.97;;;3.10;;
1128;SDS011;553;51.038;7.216;2023-01-30T16:27:04;16.70;;;4.33;;
1128;SDS011;553;51.038;7.216;2023-01-30T16:29:42;16.20;;;5.83;;
1128;SDS011;553;51.038;7.216;2023-01-30T16:32:26;13.60;;;3.73;;
1128;SDS011;553;51.038;7.216;2023-01-30T16:35:13;19.97;;;4.43;;
1128;SDS011;553;51.038;7.216;2023-01-30T16:37:53;16.97;;;3.13;;
1128;SDS011;553;51.038;7.216;2023-01-30T16:40:23;15.33;;;4.07;;
1128;SDS011;553;51.038;7.216;2023-01-30T16:50:43;19.93;;;5.90;;
1128;SDS011;553;51.038;7.216;2023-01-30T16:53:13;22.13;;;4.60;;
1128;SDS011;553;51.038;7.216;2023-01-30T16:56:07;20.17;;;4.30;;
1128;SDS011;553;51.038;7.216;2023-01-30T16:58:39;16.93;;;4.13;;
1128;SDS011;553;51.038;7.216;2023-01-30T17:01:11;20.17;;;3.63;;
1128;SDS011;553;51.038;7.216;2023-01-30T17:03:39;20.33;;;4.40;;
1128;SDS011;553;51.038;7.216;2023-01-30T17:06:09;14.07;;;3.57;;
1128;SDS011;553;51.038;7.216;2023-01-30T17:08:48;18.77;;;4.80;;
1128;SDS011;553;51.038;7.216;2023-01-30T17:17:02;14.00;;;3.87;;
1128;SDS011;553;51.038;7.216;2023-01-30T17:19:35;15.27;;;3.50;;
1128;SDS011;553;51.038;7.216;2023-01-30T17:22:15;17.87;;;4.77;;
1128;SDS011;553;51.038;7.216;2023-01-30T17:24:49;15.37;;;3.53;;
1128;SDS011;553;51.038;7.216;2023-01-30T17:27:16;17.07;;;4.00;;
1128;SDS011;553;51.038;7.216;2023-01-30T17:29:42;19.73;;;4.67;;
1128;SDS011;553;51.038;7.216;2023-01-30T17:32:11;17.87;;;3.90;;
1128;SDS011;553;51.038;7.216;2023-01-30T17:34:40;26.27;;;5.53;;
1128;SDS011;553;51.038;7.216;2023-01-30T17:37:09;23.03;;;6.30;;
1128;SDS011;553;51.038;7.216;2023-01-30T17:39:44;15.30;;;4.10;;
1128;SDS011;553;51.038;7.216;2023-01-30T17:42:12;23.53;;;4.90;;
1128;SDS011;553;51.038;7.216;2023-01-30T17:44:40;15.80;;;3.73;;
1128;SDS011;553;51.038;7.216;2023-01-30T17:47:08;16.13;;;4.97;;
1128;SDS011;553;51.038;7.216;2023-01-30T17:49:36;14.00;;;4.30;;
1128;SDS011;553;51.038;7.216;2023-01-30T17:52:04;14.40;;;4.13;;
1128;SDS011;553;51.038;7.216;2023-01-30T17:54:32;19.23;;;4.33;;
1128;SDS011;553;51.038;7.216;2023-01-30T17:56:59;13.83;;;4.57;;
1128;SDS011;553;51.038;7.216;2023-01-30T17:59:28;22.10;;;4.90;;
1128;SDS011;553;51.038;7.216;2023-01-30T18:01:54;17.23;;;5.40;;
1128;SDS011;553;51.038;7.216;2023-01-30T18:04:22;18.90;;;5.20;;
1128;SDS011;553;51.038;7.216;2023-01-30T18:06:52;16.90;;;6.20;;
1128;SDS011;553;51.038;7.216;2023-01-30T18:09:24;20.00;;;4.40;;
1128;SDS011;553;51.038;7.216;2023-01-30T18:11:52;13.53;;;4.37;;
1128;SDS011;553;51.038;7.216;2023-01-30T18:14:18;22.77;;;5.40;;
1128;SDS011;553;51.038;7.216;2023-01-30T18:16:47;10.90;;;3.10;;
1128;SDS011;553;51.038;7.216;2023-01-30T18:19:15;21.97;;;4.50;;
1128;SDS011;553;51.038;7.216;2023-01-30T18:21:49;22.30;;;4.67;;
1128;SDS011;553;51.038;7.216;2023-01-30T18:24:16;25.27;;;4.97;;
1128;SDS011;553;51.038;7.216;2023-01-30T18:26:43;21.93;;;4.90;;
1128;SDS011;553;51.038;7.216;2023-01-30T18:29:11;18.57;;;4.90;;
1128;SDS011;553;51.038;7.216;2023-01-30T18:31:38;30.00;;;4.83;;
1128;SDS011;553;51.038;7.216;2023-01-30T18:34:10;20.10;;;4.83;;